Time;durP1;ratioP1;P1;durP2;ratioP2;P2;SDS_P1;SDS_P2;PMS_P1;PMS_P2;Temp;Humidity;BMP_temperature;BMP_pressure;BME280_temperature;BME280_humidity;BME280_pressure;Samples;Min_cycle;Max_cycle;Signal;HPM_P1;HPM_P2
2023/04/15 00:01:04;;;;;;;;;;;7.10;99.90;;;;;;4990811;28;19980;-66
2023/04/15 00:03:30;;;;;;;;;;;7.20;99.90;;;;;;4991226;28;19926;-66
2023/04/15 00:05:56;;;;;;;;;;;7.20;99.90;;;;;;4991970;28;20016;-67
2023/04/15 00:08:22;;;;;;;;;;;7.20;99.90;;;;;;4991038;28;19925;-64
2023/04/15 00:10:48;;;;;;;;;;;7.20;99.90;;;;;;4975256;28;19933;-66
2023/04/15 00:13:14;;;;;;;;;;;7.20;99.90;;;;;;4990979;28;19925;-66
2023/04/15 00:15:39;;;;;;;;;;;7.20;99.90;;;;;;4992338;28;19932;-66
2023/04/15 00:18:06;;;;;;;;;;;7.20;99.90;;;;;;4991844;28;19996;-65
2023/04/15 00:20:32;;;;;;;;;;;7.10;99.90;;;;;;4990870;28;19925;-66
2023/04/15 00:22:59;;;;;;;;;;;7.10;99.90;;;;;;4991739;28;19953;-66
2023/04/15 00:25:25;;;;;;;;;;;7.10;99.90;;;;;;4991324;28;19932;-66
2023/04/15 00:27:50;;;;;;;;;;;7.10;99.90;;;;;;4992017;28;20371;-65
2023/04/15 00:30:16;;;;;;;;;;;7.10;99.90;;;;;;4990604;28;20013;-67
2023/04/15 00:32:41;;;;;;;;;;;7.10;99.90;;;;;;4991911;28;20024;-66
2023/04/15 00:35:07;;;;;;;;;;;7.00;99.90;;;;;;4991426;28;20378;-66
2023/04/15 00:37:34;;;;;;;;;;;7.00;99.90;;;;;;4992022;28;19933;-65
2023/04/15 00:39:59;;;;;;;;;;;6.90;99.90;;;;;;4991869;28;19926;-70
2023/04/15 00:42:26;;;;;;;;;;;6.90;99.90;;;;;;4992082;28;19936;-66
2023/04/15 00:44:52;;;;;;;;;;;6.90;99.90;;;;;;4991056;28;19926;-66
2023/04/15 00:47:17;;;;;;;;;;;6.80;99.90;;;;;;4989655;28;20457;-66
2023/04/15 00:49:43;;;;;;;;;;;6.80;99.90;;;;;;4974270;28;19926;-66
2023/04/15 00:52:09;;;;;;;;;;;6.80;99.90;;;;;;4974477;28;19932;-65
2023/04/15 00:54:35;;;;;;;;;;;6.80;99.90;;;;;;4974669;28;20412;-65
2023/04/15 00:57:00;;;;;;;;;;;6.80;99.90;;;;;;4990858;28;20284;-70
2023/04/15 00:59:26;;;;;;;;;;;6.80;99.90;;;;;;4990426;28;19930;-65
2023/04/15 01:01:52;;;;;;;;;;;6.70;99.90;;;;;;4993039;28;20418;-68
2023/04/15 01:04:17;;;;;;;;;;;6.70;99.90;;;;;;4977861;28;19984;-66
2023/04/15 01:06:43;;;;;;;;;;;6.70;99.90;;;;;;4994114;28;19926;-66
2023/04/15 01:09:08;;;;;;;;;;;6.70;99.90;;;;;;4994942;28;19965;-67
2023/04/15 01:11:34;;;;;;;;;;;6.70;99.90;;;;;;4995207;28;20008;-66
2023/04/15 01:14:00;;;;;;;;;;;6.70;99.90;;;;;;4994263;28;19934;-66
2023/04/15 01:16:27;;;;;;;;;;;6.70;99.90;;;;;;4977579;28;19926;-67
2023/04/15 01:18:53;;;;;;;;;;;6.60;99.90;;;;;;4995229;28;20034;-65
2023/04/15 01:21:19;;;;;;;;;;;6.60;99.90;;;;;;4993480;28;19997;-65
2023/04/15 01:23:46;;;;;;;;;;;6.50;99.90;;;;;;4995041;28;19976;-66
2023/04/15 01:26:12;;;;;;;;;;;6.50;99.90;;;;;;4994547;28;20350;-66
2023/04/15 01:28:37;;;;;;;;;;;6.50;99.90;;;;;;4995056;28;20291;-67
2023/04/15 01:31:11;;;;;;;;;;;6.40;99.90;;;;;;4993951;28;19932;-65
2023/04/15 01:33:37;;;;;;;;;;;6.40;99.90;;;;;;4995065;28;20306;-66
2023/04/15 01:36:03;;;;;;;;;;;6.40;99.90;;;;;;4993362;28;19926;-66
2023/04/15 01:38:28;;;;;;;;;;;6.30;99.90;;;;;;4994382;28;19926;-65
2023/04/15 01:40:54;;;;;;;;;;;6.20;99.90;;;;;;4994909;28;19932;-66
2023/04/15 01:43:20;;;;;;;;;;;6.20;99.90;;;;;;4993327;28;19930;-66
2023/04/15 01:45:45;;;;;;;;;;;6.20;99.90;;;;;;4993071;28;19926;-65
2023/04/15 01:48:11;;;;;;;;;;;6.20;99.90;;;;;;4992530;28;20283;-65
2023/04/15 01:50:37;;;;;;;;;;;6.10;99.90;;;;;;4993388;28;19932;-64
2023/04/15 01:53:03;;;;;;;;;;;6.10;99.90;;;;;;4994127;28;19981;-64
2023/04/15 01:55:29;;;;;;;;;;;6.00;99.90;;;;;;4994180;28;20438;-63
2023/04/15 01:57:55;;;;;;;;;;;6.00;99.90;;;;;;4994035;28;19926;-66
2023/04/15 02:00:21;;;;;;;;;;;6.00;99.90;;;;;;4993736;28;19925;-64
2023/04/15 02:02:46;;;;;;;;;;;5.90;99.90;;;;;;4993060;28;19956;-65
2023/04/15 02:05:12;;;;;;;;;;;5.90;99.90;;;;;;4992772;28;19926;-64
2023/04/15 02:07:37;;;;;;;;;;;5.90;99.90;;;;;;4993025;28;19925;-63
2023/04/15 02:10:03;;;;;;;;;;;5.90;99.90;;;;;;4993344;28;20342;-64
2023/04/15 02:12:29;;;;;;;;;;;5.90;99.90;;;;;;4992791;28;19933;-64
2023/04/15 02:14:54;;;;;;;;;;;5.90;99.90;;;;;;4993586;28;20024;-64
2023/04/15 02:17:20;;;;;;;;;;;5.90;99.90;;;;;;4993632;28;19926;-64
2023/04/15 02:19:47;;;;;;;;;;;5.90;99.90;;;;;;4994137;28;20306;-65
2023/04/15 02:22:17;;;;;;;;;;;5.90;99.90;;;;;;4993828;28;19926;-69
2023/04/15 02:24:42;;;;;;;;;;;5.90;99.90;;;;;;4994173;28;20057;-64
2023/04/15 02:27:08;;;;;;;;;;;5.90;99.90;;;;;;4993825;28;20016;-63
2023/04/15 02:29:34;;;;;;;;;;;5.90;99.90;;;;;;4992430;28;19930;-66
2023/04/15 02:31:59;;;;;;;;;;;5.80;99.90;;;;;;4993837;28;20286;-66
2023/04/15 02:34:26;;;;;;;;;;;5.80;99.90;;;;;;4993274;28;19926;-64
2023/04/15 02:36:56;;;;;;;;;;;5.70;99.90;;;;;;4993920;28;19953;-63
2023/04/15 02:39:21;;;;;;;;;;;5.70;99.90;;;;;;4993247;28;19948;-64
2023/04/15 02:41:50;;;;;;;;;;;5.70;99.90;;;;;;4992247;28;20381;-65
2023/04/15 02:44:19;;;;;;;;;;;5.70;99.90;;;;;;4992977;28;19929;-69
2023/04/15 02:46:51;;;;;;;;;;;5.70;99.90;;;;;;4992402;28;19960;-63
2023/04/15 02:49:17;;;;;;;;;;;5.70;99.90;;;;;;4991763;28;20356;-68
2023/04/15 02:51:42;;;;;;;;;;;5.70;99.90;;;;;;4992453;28;20016;-63
2023/04/15 02:54:08;;;;;;;;;;;5.70;99.90;;;;;;4993248;28;19987;-64
2023/04/15 02:56:34;;;;;;;;;;;5.70;99.90;;;;;;4992736;28;20303;-63
2023/04/15 02:58:59;;;;;;;;;;;5.70;99.90;;;;;;4993239;28;20425;-64
2023/04/15 03:01:26;;;;;;;;;;;5.70;99.90;;;;;;4992000;28;19926;-65
2023/04/15 03:03:51;;;;;;;;;;;5.60;99.90;;;;;;4993523;28;19948;-64
2023/04/15 03:06:17;;;;;;;;;;;5.60;99.90;;;;;;4993124;28;19925;-69
2023/04/15 03:08:42;;;;;;;;;;;5.60;99.90;;;;;;4991706;28;19930;-65
2023/04/15 03:11:08;;;;;;;;;;;5.60;99.90;;;;;;4991920;28;19933;-64
2023/04/15 03:13:33;;;;;;;;;;;5.50;99.90;;;;;;4992783;28;19926;-65
2023/04/15 03:15:59;;;;;;;;;;;5.50;99.90;;;;;;4993027;28;20421;-66
2023/04/15 03:18:25;;;;;;;;;;;5.50;99.90;;;;;;4991747;28;19984;-64
2023/04/15 03:20:50;;;;;;;;;;;5.50;99.90;;;;;;4991898;28;19926;-63
2023/04/15 03:23:16;;;;;;;;;;;5.50;99.90;;;;;;4992955;28;19930;-64
2023/04/15 03:25:41;;;;;;;;;;;5.50;99.90;;;;;;4991229;28;20375;-64
2023/04/15 03:28:07;;;;;;;;;;;5.50;99.90;;;;;;4993081;28;19937;-65
2023/04/15 03:30:32;;;;;;;;;;;5.40;99.90;;;;;;4992376;28;19933;-64
2023/04/15 03:32:58;;;;;;;;;;;5.40;99.90;;;;;;4975522;28;19980;-64
2023/04/15 03:35:24;;;;;;;;;;;5.40;99.90;;;;;;4992274;28;19933;-64
2023/04/15 03:37:49;;;;;;;;;;;5.40;99.90;;;;;;4992552;28;20020;-63
2023/04/15 03:40:15;;;;;;;;;;;5.30;99.90;;;;;;4991682;28;19926;-63
2023/04/15 03:42:41;;;;;;;;;;;5.30;99.90;;;;;;4992316;28;19926;-64
2023/04/15 03:45:07;;;;;;;;;;;5.40;99.90;;;;;;4992375;28;19933;-65
2023/04/15 03:47:32;;;;;;;;;;;5.30;99.90;;;;;;4990893;28;20370;-63
2023/04/15 03:49:58;;;;;;;;;;;5.30;99.90;;;;;;4992780;28;19926;-64
2023/04/15 03:52:23;;;;;;;;;;;5.30;99.90;;;;;;4991161;28;19973;-68
2023/04/15 03:54:49;;;;;;;;;;;5.30;99.90;;;;;;4992445;28;19926;-64
2023/04/15 03:57:15;;;;;;;;;;;5.30;99.90;;;;;;4992539;28;19972;-64
2023/04/15 03:59:40;;;;;;;;;;;5.30;99.90;;;;;;4992128;28;20380;-63
2023/04/15 04:02:06;;;;;;;;;;;5.30;99.90;;;;;;4991998;28;19977;-68
2023/04/15 04:04:31;;;;;;;;;;;5.30;99.90;;;;;;4992148;28;20330;-63
2023/04/15 04:06:57;;;;;;;;;;;5.30;99.90;;;;;;4992536;28;19972;-65
2023/04/15 04:09:23;;;;;;;;;;;5.20;99.90;;;;;;4992508;28;19926;-64
2023/04/15 04:11:48;;;;;;;;;;;5.20;99.90;;;;;;4992165;28;19925;-63
2023/04/15 04:14:14;;;;;;;;;;;5.20;99.90;;;;;;4991128;28;20040;-64
2023/04/15 04:16:39;;;;;;;;;;;5.20;99.90;;;;;;4990820;28;20084;-65
2023/04/15 04:19:05;;;;;;;;;;;5.20;99.90;;;;;;4990994;28;20076;-64
2023/04/15 04:21:33;;;;;;;;;;;5.20;99.90;;;;;;4990708;28;19979;-65
2023/04/15 04:23:58;;;;;;;;;;;5.10;99.90;;;;;;4992095;28;19926;-65
2023/04/15 04:26:24;;;;;;;;;;;5.10;99.90;;;;;;4992074;28;19926;-65
2023/04/15 04:28:50;;;;;;;;;;;5.10;99.90;;;;;;4991764;28;20295;-64
2023/04/15 04:31:15;;;;;;;;;;;5.10;99.90;;;;;;4990899;28;19977;-65
2023/04/15 04:33:41;;;;;;;;;;;5.00;99.90;;;;;;4990564;28;19936;-64
2023/04/15 04:36:07;;;;;;;;;;;5.00;99.90;;;;;;4990857;28;20359;-65
2023/04/15 04:38:32;;;;;;;;;;;5.00;99.90;;;;;;4995239;28;19953;-65
2023/04/15 04:40:58;;;;;;;;;;;4.90;99.90;;;;;;4994031;28;19925;-65
2023/04/15 04:43:23;;;;;;;;;;;4.90;99.90;;;;;;4995782;28;19929;-63
2023/04/15 04:45:49;;;;;;;;;;;4.90;99.90;;;;;;4995684;28;20025;-64
2023/04/15 04:48:15;;;;;;;;;;;4.90;99.90;;;;;;4993547;28;20328;-64
2023/04/15 04:50:41;;;;;;;;;;;5.30;99.90;;;;;;4995200;28;19976;-66
2023/04/15 04:53:07;;;;;;;;;;;4.80;99.90;;;;;;4995666;28;19977;-64
2023/04/15 04:55:35;;;;;;;;;;;4.80;99.90;;;;;;4995697;28;19926;-69
2023/04/15 04:58:01;;;;;;;;;;;4.70;99.90;;;;;;4995619;28;20347;-64
2023/04/15 05:00:27;;;;;;;;;;;4.70;99.90;;;;;;4995508;28;19968;-63
2023/04/15 05:02:52;;;;;;;;;;;4.70;99.90;;;;;;4995509;28;20576;-64
2023/04/15 05:05:18;;;;;;;;;;;4.70;99.90;;;;;;4995760;28;19926;-65
2023/04/15 05:07:43;;;;;;;;;;;4.70;99.90;;;;;;4994954;28;19925;-65
2023/04/15 05:10:09;;;;;;;;;;;4.70;99.90;;;;;;4994223;28;19926;-64
2023/04/15 05:12:36;;;;;;;;;;;4.70;99.90;;;;;;4994931;28;20268;-69
2023/04/15 05:15:01;;;;;;;;;;;4.80;99.90;;;;;;4995273;28;19925;-64
2023/04/15 05:17:27;;;;;;;;;;;4.80;99.90;;;;;;4994000;28;19926;-64
2023/04/15 05:19:53;;;;;;;;;;;4.80;99.90;;;;;;4994968;28;19926;-64
2023/04/15 05:22:18;;;;;;;;;;;4.90;99.90;;;;;;4994063;28;20290;-63
2023/04/15 05:24:44;;;;;;;;;;;4.90;99.90;;;;;;4994772;28;19925;-64
2023/04/15 05:27:10;;;;;;;;;;;5.00;99.90;;;;;;4994956;28;19926;-65
2023/04/15 05:29:36;;;;;;;;;;;5.10;99.90;;;;;;4995011;28;19930;-68
2023/04/15 05:32:01;;;;;;;;;;;5.20;99.90;;;;;;4995111;28;20328;-63
2023/04/15 05:34:27;;;;;;;;;;;5.50;99.90;;;;;;4994801;28;19933;-64
2023/04/15 05:36:53;;;;;;;;;;;6.00;99.90;;;;;;4994127;28;19977;-63
2023/04/15 05:39:18;;;;;;;;;;;6.50;99.90;;;;;;4994729;28;19937;-64
2023/04/15 05:41:44;;;;;;;;;;;6.90;99.90;;;;;;4994337;28;19926;-63
2023/04/15 05:44:09;;;;;;;;;;;7.20;99.90;;;;;;4993669;28;19926;-64
2023/04/15 05:46:35;;;;;;;;;;;7.40;99.90;;;;;;4994459;28;20040;-64
2023/04/15 05:49:00;;;;;;;;;;;7.70;99.90;;;;;;4992714;28;19933;-64
2023/04/15 05:51:26;;;;;;;;;;;7.90;99.90;;;;;;4977281;28;20389;-64
2023/04/15 05:53:52;;;;;;;;;;;8.30;99.90;;;;;;4994293;28;20013;-63
2023/04/15 05:56:19;;;;;;;;;;;8.70;99.90;;;;;;4994414;28;19926;-64
2023/04/15 05:58:45;;;;;;;;;;;8.90;99.90;;;;;;4993036;28;19977;-63
2023/04/15 06:01:10;;;;;;;;;;;9.20;99.90;;;;;;4994515;28;20477;-63
2023/04/15 06:03:36;;;;;;;;;;;9.50;99.90;;;;;;4994367;28;20025;-63
2023/04/15 06:06:02;;;;;;;;;;;9.70;99.90;;;;;;4993958;28;19922;-65
2023/04/15 06:08:28;;;;;;;;;;;9.80;99.90;;;;;;4992684;28;19926;-63
2023/04/15 06:10:54;;;;;;;;;;;9.90;99.90;;;;;;4993549;28;19926;-62
2023/04/15 06:13:19;;;;;;;;;;;10.00;99.90;;;;;;4994202;28;19932;-63
2023/04/15 06:15:45;;;;;;;;;;;10.10;99.90;;;;;;4993875;28;19980;-63
2023/04/15 06:18:10;;;;;;;;;;;10.10;99.90;;;;;;4992738;28;19929;-63
2023/04/15 06:20:36;;;;;;;;;;;10.00;99.90;;;;;;4993764;28;19929;-65
2023/04/15 06:23:02;;;;;;;;;;;9.90;99.90;;;;;;4993618;28;19936;-64
2023/04/15 06:25:27;;;;;;;;;;;9.80;99.90;;;;;;4993076;28;19926;-62
2023/04/15 06:27:53;;;;;;;;;;;9.70;99.90;;;;;;4992349;28;19983;-64
2023/04/15 06:30:18;;;;;;;;;;;9.70;99.90;;;;;;4994237;28;20012;-63
2023/04/15 06:32:44;;;;;;;;;;;9.60;99.90;;;;;;4993510;28;20053;-68
2023/04/15 06:35:10;;;;;;;;;;;9.70;99.90;;;;;;4992199;28;19933;-65
2023/04/15 06:37:36;;;;;;;;;;;9.90;99.90;;;;;;4993729;28;19926;-63
2023/04/15 06:40:03;;;;;;;;;;;10.10;99.90;;;;;;4993478;28;19926;-63
2023/04/15 06:42:29;;;;;;;;;;;10.30;99.90;;;;;;4993620;28;19930;-63
2023/04/15 06:44:55;;;;;;;;;;;10.40;99.90;;;;;;4993293;28;19926;-63
2023/04/15 06:47:21;;;;;;;;;;;10.40;99.90;;;;;;4992237;28;19926;-64
2023/04/15 06:49:46;;;;;;;;;;;10.40;99.90;;;;;;4992941;28;20312;-68
2023/04/15 06:52:12;;;;;;;;;;;10.50;99.90;;;;;;4992029;28;19933;-62
2023/04/15 06:54:38;;;;;;;;;;;10.50;99.90;;;;;;4993460;28;19930;-63
2023/04/15 06:57:05;;;;;;;;;;;10.50;99.90;;;;;;4975922;28;19926;-64
2023/04/15 06:59:31;;;;;;;;;;;10.40;99.90;;;;;;4992098;28;20000;-62
2023/04/15 07:01:57;;;;;;;;;;;10.30;99.90;;;;;;4992912;28;19934;-62
2023/04/15 07:04:23;;;;;;;;;;;10.30;99.90;;;;;;4993330;28;19955;-64
2023/04/15 07:06:48;;;;;;;;;;;10.20;99.90;;;;;;4993181;28;20281;-68
2023/04/15 07:09:14;;;;;;;;;;;10.10;99.90;;;;;;4993227;28;20024;-65
2023/04/15 07:11:40;;;;;;;;;;;10.00;99.90;;;;;;4993376;28;19980;-63
2023/04/15 07:14:05;;;;;;;;;;;9.90;99.90;;;;;;4991282;28;19925;-63
2023/04/15 07:16:31;;;;;;;;;;;9.90;99.90;;;;;;4993098;28;19925;-64
2023/04/15 07:18:57;;;;;;;;;;;9.80;99.90;;;;;;4975481;28;19926;-63
2023/04/15 07:21:23;;;;;;;;;;;9.80;99.90;;;;;;4993096;28;19973;-62
2023/04/15 07:23:48;;;;;;;;;;;9.70;99.90;;;;;;4992876;28;19925;-64
2023/04/15 07:26:14;;;;;;;;;;;9.70;99.90;;;;;;4991592;28;19932;-62
2023/04/15 07:28:40;;;;;;;;;;;9.60;99.90;;;;;;4975531;28;20334;-66
2023/04/15 07:31:05;;;;;;;;;;;9.60;99.90;;;;;;4992791;28;19949;-65
2023/04/15 07:33:31;;;;;;;;;;;9.50;99.90;;;;;;4991528;28;20351;-65
2023/04/15 07:35:57;;;;;;;;;;;9.50;99.90;;;;;;4992576;28;20275;-66
2023/04/15 07:38:22;;;;;;;;;;;9.40;99.90;;;;;;4991873;28;19980;-65
2023/04/15 07:40:48;;;;;;;;;;;9.40;99.90;;;;;;4991721;28;19988;-65
2023/04/15 07:43:14;;;;;;;;;;;9.40;99.90;;;;;;4992448;28;19984;-65
2023/04/15 07:45:40;;;;;;;;;;;9.30;99.90;;;;;;4975501;28;19948;-65
2023/04/15 07:48:05;;;;;;;;;;;9.30;99.90;;;;;;4991031;28;19933;-64
2023/04/15 07:50:31;;;;;;;;;;;9.30;99.90;;;;;;4992101;28;20082;-65
2023/04/15 07:52:57;;;;;;;;;;;9.30;99.90;;;;;;4991306;28;19984;-65
2023/04/15 07:55:22;;;;;;;;;;;9.30;99.90;;;;;;4975544;28;19984;-64
2023/04/15 07:57:48;;;;;;;;;;;9.40;99.90;;;;;;4991841;28;19926;-65
2023/04/15 08:00:15;;;;;;;;;;;9.40;99.90;;;;;;4991203;28;19926;-65
2023/04/15 08:02:41;;;;;;;;;;;9.40;99.90;;;;;;4992766;28;20394;-64
2023/04/15 08:05:08;;;;;;;;;;;9.40;99.90;;;;;;4991349;28;20024;-64
2023/04/15 08:07:33;;;;;;;;;;;9.40;99.90;;;;;;4975251;28;19981;-65
2023/04/15 08:09:59;;;;;;;;;;;9.40;99.90;;;;;;4992390;28;19973;-67
2023/04/15 08:12:25;;;;;;;;;;;9.40;99.90;;;;;;4977466;28;20031;-65
2023/04/15 08:14:51;;;;;;;;;;;9.40;99.90;;;;;;4995741;28;20008;-66
2023/04/15 08:17:16;;;;;;;;;;;9.30;99.90;;;;;;4994949;28;20595;-65
2023/04/15 08:19:42;;;;;;;;;;;9.30;99.90;;;;;;4995601;28;19925;-64
2023/04/15 08:22:10;;;;;;;;;;;9.20;99.90;;;;;;4995234;28;20287;-67
2023/04/15 08:24:37;;;;;;;;;;;9.30;99.90;;;;;;4978165;28;19972;-63
2023/04/15 08:27:04;;;;;;;;;;;9.20;99.90;;;;;;4996094;28;19926;-63
2023/04/15 08:29:30;;;;;;;;;;;9.10;99.90;;;;;;4995421;28;19944;-64
2023/04/15 08:31:56;;;;;;;;;;;9.10;99.90;;;;;;4996676;28;19936;-64
2023/04/15 08:34:22;;;;;;;;;;;9.10;99.90;;;;;;4995580;28;20367;-65
2023/04/15 08:36:48;;;;;;;;;;;9.10;99.90;;;;;;4995916;28;20398;-64
2023/04/15 08:39:13;;;;;;;;;;;9.00;99.90;;;;;;4994810;28;19925;-64
2023/04/15 08:41:43;;;;;;;;;;;9.00;99.90;;;;;;4994941;28;19926;-64
2023/04/15 08:44:09;;;;;;;;;;;9.00;99.90;;;;;;4994913;28;19932;-64
2023/04/15 08:46:35;;;;;;;;;;;9.00;99.90;;;;;;4996074;28;19925;-64
2023/04/15 08:49:02;;;;;;;;;;;9.00;99.90;;;;;;4995978;28;19941;-64
2023/04/15 08:51:28;;;;;;;;;;;9.10;99.90;;;;;;4996286;28;19952;-66
2023/04/15 08:53:54;;;;;;;;;;;9.10;99.90;;;;;;4995938;28;20395;-64
2023/04/15 08:56:23;;;;;;;;;;;9.10;99.90;;;;;;4994500;28;19930;-63
2023/04/15 08:58:49;;;;;;;;;;;9.20;99.90;;;;;;4995724;28;19926;-65
2023/04/15 09:01:16;;;;;;;;;;;9.20;99.90;;;;;;4995332;28;19932;-64
2023/04/15 09:03:41;;;;;;;;;;;9.10;99.90;;;;;;4995850;28;19980;-65
2023/04/15 09:06:07;;;;;;;;;;;9.10;99.90;;;;;;4995352;28;19926;-64
2023/04/15 09:08:36;;;;;;;;;;;9.10;99.90;;;;;;4995464;28;20387;-63
2023/04/15 09:11:02;;;;;;;;;;;9.10;99.90;;;;;;4994491;28;20354;-63
2023/04/15 09:13:28;;;;;;;;;;;9.10;99.90;;;;;;4977730;28;19961;-65
2023/04/15 09:15:54;;;;;;;;;;;9.10;99.90;;;;;;4995573;28;19926;-66
2023/04/15 09:18:27;;;;;;;;;;;9.20;99.90;;;;;;4995057;28;19926;-68
2023/04/15 09:20:53;;;;;;;;;;;9.20;99.90;;;;;;4995404;28;19926;-66
2023/04/15 09:23:20;;;;;;;;;;;9.30;99.90;;;;;;4994683;28;19952;-65
2023/04/15 09:25:48;;;;;;;;;;;9.30;99.90;;;;;;4995078;28;19930;-66
2023/04/15 09:28:13;;;;;;;;;;;9.40;99.90;;;;;;4994864;28;19925;-64
2023/04/15 09:30:42;;;;;;;;;;;9.50;99.90;;;;;;4994213;28;19933;-64
2023/04/15 09:33:09;;;;;;;;;;;9.50;99.90;;;;;;4995194;28;19925;-73
2023/04/15 09:35:35;;;;;;;;;;;9.60;99.90;;;;;;4995175;28;19949;-64
2023/04/15 09:38:06;;;;;;;;;;;9.60;99.90;;;;;;4994703;28;19926;-65
2023/04/15 09:40:32;;;;;;;;;;;9.60;99.90;;;;;;4993498;28;19988;-65
2023/04/15 09:42:58;;;;;;;;;;;9.70;99.90;;;;;;4994998;28;19969;-67
2023/04/15 09:45:24;;;;;;;;;;;9.70;99.90;;;;;;4994619;28;19989;-63
2023/04/15 09:47:52;;;;;;;;;;;9.70;99.90;;;;;;4994523;28;20355;-67
2023/04/15 09:50:19;;;;;;;;;;;9.70;99.90;;;;;;4992659;28;19956;-66
2023/04/15 09:52:45;;;;;;;;;;;9.70;99.90;;;;;;4977365;28;20259;-65
2023/04/15 09:55:12;;;;;;;;;;;9.70;99.90;;;;;;4994394;28;20392;-72
2023/04/15 09:57:38;;;;;;;;;;;9.70;99.90;;;;;;4993901;28;19925;-66
2023/04/15 10:00:05;;;;;;;;;;;9.70;99.90;;;;;;4993455;28;19933;-64
2023/04/15 10:02:31;;;;;;;;;;;9.70;99.90;;;;;;4994250;28;20173;-65
2023/04/15 10:04:57;;;;;;;;;;;9.80;99.90;;;;;;4994399;28;19929;-64
2023/04/15 10:07:22;;;;;;;;;;;9.90;99.90;;;;;;4992668;28;19933;-64
2023/04/15 10:09:48;;;;;;;;;;;9.90;99.90;;;;;;4994525;28;19960;-63
2023/04/15 10:12:15;;;;;;;;;;;9.90;99.90;;;;;;4994096;28;20363;-75
2023/04/15 10:14:41;;;;;;;;;;;9.90;99.90;;;;;;4977299;28;19936;-65
2023/04/15 10:17:09;;;;;;;;;;;9.80;99.90;;;;;;4994208;28;19926;-65
2023/04/15 10:19:36;;;;;;;;;;;9.80;99.90;;;;;;4994063;28;19926;-65
2023/04/15 10:22:02;;;;;;;;;;;9.80;99.90;;;;;;4994389;28;19926;-65
2023/04/15 10:24:29;;;;;;;;;;;9.80;99.90;;;;;;4993718;28;19932;-65
2023/04/15 10:26:56;;;;;;;;;;;9.80;99.90;;;;;;4992960;28;19926;-66
2023/04/15 10:29:22;;;;;;;;;;;9.70;99.90;;;;;;4992747;28;20350;-65
2023/04/15 10:31:48;;;;;;;;;;;9.80;99.90;;;;;;4994252;28;19926;-66
2023/04/15 10:34:14;;;;;;;;;;;9.70;99.90;;;;;;4993345;28;19932;-66
2023/04/15 10:36:40;;;;;;;;;;;9.70;99.90;;;;;;4993547;28;19926;-65
2023/04/15 10:39:29;;;;;;;;;;;9.70;99.90;;;;;;4991876;28;19930;-66
2023/04/15 10:42:14;;;;;;;;;;;9.70;99.90;;;;;;4990712;28;19933;-67
2023/04/15 10:44:52;;;;;;;;;;;9.70;99.90;;;;;;4976406;28;19925;-67
2023/04/15 10:47:19;;;;;;;;;;;9.60;99.90;;;;;;4993121;28;19972;-75
2023/04/15 10:49:56;;;;;;;;;;;9.60;99.90;;;;;;4993332;28;19965;-65
2023/04/15 10:52:23;;;;;;;;;;;9.90;99.90;;;;;;4992028;28;19925;-67
2023/04/15 10:54:49;;;;;;;;;;;9.60;99.90;;;;;;4993848;28;19925;-65
2023/04/15 10:57:15;;;;;;;;;;;9.60;99.90;;;;;;4993838;28;20475;-67
2023/04/15 11:00:03;;;;;;;;;;;9.60;99.90;;;;;;4993400;28;19921;-66
2023/04/15 11:02:38;;;;;;;;;;;9.70;99.90;;;;;;4992381;28;20375;-71
2023/04/15 11:05:04;;;;;;;;;;;9.70;99.90;;;;;;4992662;28;20297;-65
2023/04/15 11:07:36;;;;;;;;;;;9.70;99.90;;;;;;4992036;28;19925;-66
2023/04/15 11:10:03;;;;;;;;;;;9.70;99.90;;;;;;4993636;28;20077;-67
2023/04/15 11:12:35;;;;;;;;;;;9.70;99.90;;;;;;4991959;28;19930;-66
2023/04/15 11:15:19;;;;;;;;;;;9.80;99.90;;;;;;4993247;28;20368;-67
2023/04/15 11:17:45;;;;;;;;;;;9.70;99.90;;;;;;4992882;28;20003;-65
2023/04/15 11:20:14;;;;;;;;;;;9.70;99.90;;;;;;4993047;28;20395;-68
2023/04/15 11:22:46;;;;;;;;;;;9.70;99.90;;;;;;4992053;28;19930;-67
2023/04/15 11:25:21;;;;;;;;;;;9.80;99.90;;;;;;4992997;28;20023;-66
2023/04/15 11:27:46;;;;;;;;;;;9.80;99.90;;;;;;4992782;28;19936;-67
2023/04/15 11:30:22;;;;;;;;;;;9.90;99.90;;;;;;4976050;28;19926;-67
2023/04/15 11:32:48;;;;;;;;;;;9.90;99.90;;;;;;4992589;28;20323;-66
2023/04/15 11:35:14;;;;;;;;;;;9.90;99.90;;;;;;4975867;28;20351;-67
2023/04/15 11:37:40;;;;;;;;;;;9.90;99.90;;;;;;4992612;28;20020;-67
2023/04/15 11:40:06;;;;;;;;;;;9.80;99.90;;;;;;4992918;28;19988;-66
2023/04/15 11:42:32;;;;;;;;;;;9.80;99.90;;;;;;4992654;28;19929;-66
2023/04/15 11:45:10;;;;;;;;;;;9.80;99.90;;;;;;4991903;28;19972;-66
2023/04/15 11:47:37;;;;;;;;;;;9.90;99.90;;;;;;4991497;28;19936;-66
2023/04/15 11:50:12;;;;;;;;;;;9.90;99.90;;;;;;4989526;28;19926;-67
2023/04/15 11:52:38;;;;;;;;;;;9.90;99.90;;;;;;4991236;28;19936;-68
2023/04/15 11:55:06;;;;;;;;;;;9.80;99.90;;;;;;4990838;28;20016;-67
2023/04/15 11:57:33;;;;;;;;;;;9.80;99.90;;;;;;4992149;28;19933;-68
2023/04/15 11:59:59;;;;;;;;;;;9.80;99.90;;;;;;4991335;28;19972;-70
2023/04/15 12:02:31;;;;;;;;;;;9.80;99.90;;;;;;4990848;28;20403;-67
2023/04/15 12:05:07;;;;;;;;;;;9.90;99.90;;;;;;4991464;28;19977;-70
2023/04/15 12:07:33;;;;;;;;;;;9.80;99.90;;;;;;4991099;28;19930;-67
2023/04/15 12:09:59;;;;;;;;;;;9.80;99.90;;;;;;4992581;28;19932;-68
2023/04/15 12:12:27;;;;;;;;;;;9.80;99.90;;;;;;4991866;28;19926;-67
2023/04/15 12:14:55;;;;;;;;;;;9.80;99.90;;;;;;4992181;28;19930;-67
2023/04/15 12:17:22;;;;;;;;;;;9.80;99.90;;;;;;4992219;28;19933;-65
2023/04/15 12:19:48;;;;;;;;;;;9.70;99.90;;;;;;4992202;28;19926;-71
2023/04/15 12:22:15;;;;;;;;;;;9.80;99.90;;;;;;4991350;28;19934;-67
2023/04/15 12:24:43;;;;;;;;;;;9.80;99.90;;;;;;4992110;28;19933;-68
2023/04/15 12:27:10;;;;;;;;;;;9.90;99.90;;;;;;4992251;28;19925;-67
2023/04/15 12:29:37;;;;;;;;;;;9.90;99.90;;;;;;4990730;28;19976;-68
2023/04/15 12:32:12;;;;;;;;;;;9.90;99.90;;;;;;4990022;28;19926;-72
2023/04/15 12:34:49;;;;;;;;;;;9.90;99.90;;;;;;4990884;28;20008;-68
2023/04/15 12:37:14;;;;;;;;;;;9.80;99.90;;;;;;4991330;28;20342;-69
2023/04/15 12:39:41;;;;;;;;;;;9.80;99.90;;;;;;4992010;28;19969;-67
2023/04/15 12:42:07;;;;;;;;;;;9.80;99.90;;;;;;4991499;28;19930;-67
2023/04/15 12:44:34;;;;;;;;;;;9.80;99.90;;;;;;4975541;28;19926;-75
2023/04/15 12:47:00;;;;;;;;;;;9.80;99.90;;;;;;4992454;28;19925;-67
2023/04/15 12:49:25;;;;;;;;;;;9.80;99.90;;;;;;4989703;28;20069;-67
2023/04/15 12:51:52;;;;;;;;;;;9.80;99.90;;;;;;4991089;28;19925;-67
2023/04/15 12:54:18;;;;;;;;;;;9.70;99.90;;;;;;4991166;28;20078;-67
2023/04/15 12:56:45;;;;;;;;;;;9.60;99.90;;;;;;4991782;28;19925;-68
2023/04/15 12:59:11;;;;;;;;;;;9.50;99.90;;;;;;4995132;28;20316;-67
2023/04/15 13:01:37;;;;;;;;;;;9.50;99.90;;;;;;4995399;28;19933;-75
2023/04/15 13:04:03;;;;;;;;;;;9.50;99.90;;;;;;4993759;28;19926;-66
2023/04/15 13:06:29;;;;;;;;;;;9.50;99.90;;;;;;4995288;28;20286;-76
2023/04/15 13:08:55;;;;;;;;;;;9.50;99.90;;;;;;4971277;28;20048;-75
2023/04/15 13:11:21;;;;;;;;;;;9.50;99.90;;;;;;4972501;28;19925;-69
2023/04/15 13:13:47;;;;;;;;;;;9.50;99.90;;;;;;4990411;28;19925;-69
2023/04/15 13:16:13;;;;;;;;;;;9.40;99.90;;;;;;4992176;28;19983;-74
2023/04/15 13:18:38;;;;;;;;;;;9.40;99.90;;;;;;4989005;28;19925;-76
2023/04/15 13:21:06;;;;;;;;;;;9.40;99.90;;;;;;4989563;28;19921;-69
2023/04/15 13:23:32;;;;;;;;;;;9.40;99.90;;;;;;4992152;28;19988;-67
2023/04/15 13:25:58;;;;;;;;;;;9.30;99.90;;;;;;4994797;28;19934;-66
2023/04/15 13:28:23;;;;;;;;;;;9.30;99.90;;;;;;4993846;28;19948;-67
2023/04/15 13:30:49;;;;;;;;;;;9.30;99.90;;;;;;4994838;28;19972;-66
2023/04/15 13:33:15;;;;;;;;;;;9.20;99.90;;;;;;4995092;28;19948;-67
2023/04/15 13:35:41;;;;;;;;;;;9.20;99.90;;;;;;4994683;28;20007;-75
2023/04/15 13:38:06;;;;;;;;;;;9.20;99.90;;;;;;4994910;28;20353;-67
2023/04/15 13:40:32;;;;;;;;;;;9.20;99.90;;;;;;4993149;28;19926;-68
2023/04/15 13:42:58;;;;;;;;;;;9.30;99.90;;;;;;4994518;28;20047;-67
2023/04/15 13:45:25;;;;;;;;;;;9.20;99.90;;;;;;4977894;28;20360;-67
2023/04/15 13:47:50;;;;;;;;;;;9.20;99.90;;;;;;4993302;28;20351;-69
2023/04/15 13:50:16;;;;;;;;;;;9.20;99.90;;;;;;4991914;28;20031;-67
2023/04/15 13:52:41;;;;;;;;;;;9.20;99.90;;;;;;4991631;28;20068;-76
2023/04/15 13:55:07;;;;;;;;;;;9.20;99.90;;;;;;4993670;28;19982;-67
2023/04/15 13:57:33;;;;;;;;;;;9.20;99.90;;;;;;4994809;28;20447;-68
2023/04/15 13:59:59;;;;;;;;;;;9.20;99.90;;;;;;4992791;28;20311;-68
2023/04/15 14:02:24;;;;;;;;;;;9.20;99.90;;;;;;4994778;28;19926;-68
2023/04/15 14:04:50;;;;;;;;;;;9.20;99.90;;;;;;4993119;28;19926;-75
2023/04/15 14:07:16;;;;;;;;;;;9.30;99.90;;;;;;4994413;28;19929;-68
2023/04/15 14:09:42;;;;;;;;;;;9.20;99.90;;;;;;4993232;28;20509;-67
2023/04/15 14:12:08;;;;;;;;;;;9.20;99.90;;;;;;4994052;28;19926;-68
2023/04/15 14:14:34;;;;;;;;;;;9.20;99.90;;;;;;4993228;28;19985;-69
2023/04/15 14:17:00;;;;;;;;;;;9.20;99.90;;;;;;4992954;28;19969;-68
2023/04/15 14:19:25;;;;;;;;;;;9.20;99.90;;;;;;4993931;28;19926;-68
2023/04/15 14:21:51;;;;;;;;;;;9.10;99.90;;;;;;4976408;28;19933;-68
2023/04/15 14:24:16;;;;;;;;;;;9.20;99.90;;;;;;4992812;28;19937;-66